sensor_id;sensor_type;location;lat;lon;timestamp;P1;durP1;ratioP1;P2;durP2;ratioP2
20456;SDS011;10387;51.102;6.848;2023-03-12T00:01:34;11.97;;;9.27;;
20456;SDS011;10387;51.102;6.848;2023-03-12T00:04:02;10.27;;;8.93;;
20456;SDS011;10387;51.102;6.848;2023-03-12T00:06:28;13.03;;;10.00;;
20456;SDS011;10387;51.102;6.848;2023-03-12T00:08:56;10.30;;;8.60;;
20456;SDS011;10387;51.102;6.848;2023-03-12T00:11:23;10.43;;;8.70;;
20456;SDS011;10387;51.102;6.848;2023-03-12T00:13:52;10.07;;;7.90;;
20456;SDS011;10387;51.102;6.848;2023-03-12T00:16:19;8.57;;;7.67;;
20456;SDS011;10387;51.102;6.848;2023-03-12T00:18:46;9.23;;;8.13;;
20456;SDS011;10387;51.102;6.848;2023-03-12T00:21:13;7.93;;;7.13;;
20456;SDS011;10387;51.102;6.848;2023-03-12T00:23:39;9.80;;;7.93;;
20456;SDS011;10387;51.102;6.848;2023-03-12T00:26:06;10.40;;;8.33;;
20456;SDS011;10387;51.102;6.848;2023-03-12T00:28:34;8.13;;;7.17;;
20456;SDS011;10387;51.102;6.848;2023-03-12T00:31:01;11.70;;;7.87;;
20456;SDS011;10387;51.102;6.848;2023-03-12T00:33:28;8.60;;;6.97;;
20456;SDS011;10387;51.102;6.848;2023-03-12T00:35:54;7.93;;;7.13;;
20456;SDS011;10387;51.102;6.848;2023-03-12T00:38:21;11.10;;;7.13;;
20456;SDS011;10387;51.102;6.848;2023-03-12T00:40:47;9.10;;;7.77;;
20456;SDS011;10387;51.102;6.848;2023-03-12T00:43:13;9.83;;;7.07;;
20456;SDS011;10387;51.102;6.848;2023-03-12T00:45:39;8.40;;;6.83;;
20456;SDS011;10387;51.102;6.848;2023-03-12T00:48:04;7.67;;;6.87;;
20456;SDS011;10387;51.102;6.848;2023-03-12T00:50:30;9.33;;;7.27;;
20456;SDS011;10387;51.102;6.848;2023-03-12T00:52:56;9.03;;;7.03;;
20456;SDS011;10387;51.102;6.848;2023-03-12T00:55:22;7.47;;;6.77;;
20456;SDS011;10387;51.102;6.848;2023-03-12T00:57:47;7.90;;;6.63;;
20456;SDS011;10387;51.102;6.848;2023-03-12T01:00:13;9.50;;;6.97;;
20456;SDS011;10387;51.102;6.848;2023-03-12T01:02:39;7.07;;;6.27;;
20456;SDS011;10387;51.102;6.848;2023-03-12T01:05:05;8.23;;;6.20;;
20456;SDS011;10387;51.102;6.848;2023-03-12T01:07:34;8.13;;;6.10;;
20456;SDS011;10387;51.102;6.848;2023-03-12T01:10:00;7.00;;;6.00;;
20456;SDS011;10387;51.102;6.848;2023-03-12T01:12:25;7.17;;;6.03;;
20456;SDS011;10387;51.102;6.848;2023-03-12T01:14:51;7.27;;;5.97;;
20456;SDS011;10387;51.102;6.848;2023-03-12T01:17:17;7.60;;;6.13;;
20456;SDS011;10387;51.102;6.848;2023-03-12T01:19:42;7.17;;;5.73;;
20456;SDS011;10387;51.102;6.848;2023-03-12T01:22:08;6.93;;;5.60;;
20456;SDS011;10387;51.102;6.848;2023-03-12T01:24:34;6.03;;;5.33;;
20456;SDS011;10387;51.102;6.848;2023-03-12T01:27:00;8.30;;;5.60;;
20456;SDS011;10387;51.102;6.848;2023-03-12T01:29:25;7.87;;;5.70;;
20456;SDS011;10387;51.102;6.848;2023-03-12T01:31:51;7.53;;;6.07;;
20456;SDS011;10387;51.102;6.848;2023-03-12T01:34:17;7.10;;;5.57;;
20456;SDS011;10387;51.102;6.848;2023-03-12T01:36:44;6.97;;;5.80;;
20456;SDS011;10387;51.102;6.848;2023-03-12T01:39:11;6.20;;;5.60;;
20456;SDS011;10387;51.102;6.848;2023-03-12T01:41:37;6.07;;;5.47;;
20456;SDS011;10387;51.102;6.848;2023-03-12T01:44:04;6.83;;;5.80;;
20456;SDS011;10387;51.102;6.848;2023-03-12T01:46:35;6.53;;;5.80;;
20456;SDS011;10387;51.102;6.848;2023-03-12T01:52:13;6.13;;;5.30;;
20456;SDS011;10387;51.102;6.848;2023-03-12T01:55:04;7.33;;;5.80;;
20456;SDS011;10387;51.102;6.848;2023-03-12T01:57:39;6.60;;;5.93;;
20456;SDS011;10387;51.102;6.848;2023-03-12T02:00:17;7.63;;;5.80;;
20456;SDS011;10387;51.102;6.848;2023-03-12T02:02:46;9.03;;;5.70;;
20456;SDS011;10387;51.102;6.848;2023-03-12T02:08:05;6.90;;;6.30;;
20456;SDS011;10387;51.102;6.848;2023-03-12T02:10:31;6.40;;;5.73;;
20456;SDS011;10387;51.102;6.848;2023-03-12T02:12:56;6.40;;;5.50;;
20456;SDS011;10387;51.102;6.848;2023-03-12T02:15:22;6.50;;;5.83;;
20456;SDS011;10387;51.102;6.848;2023-03-12T02:17:48;6.33;;;5.37;;
20456;SDS011;10387;51.102;6.848;2023-03-12T02:20:16;7.70;;;5.67;;
20456;SDS011;10387;51.102;6.848;2023-03-12T02:23:42;6.00;;;5.40;;
20456;SDS011;10387;51.102;6.848;2023-03-12T02:25:51;7.67;;;5.77;;
20456;SDS011;10387;51.102;6.848;2023-03-12T02:28:19;6.87;;;5.57;;
20456;SDS011;10387;51.102;6.848;2023-03-12T02:30:47;9.03;;;5.73;;
20456;SDS011;10387;51.102;6.848;2023-03-12T02:33:15;7.10;;;6.27;;
20456;SDS011;10387;51.102;6.848;2023-03-12T02:35:41;7.13;;;5.67;;
20456;SDS011;10387;51.102;6.848;2023-03-12T02:44:03;6.07;;;5.33;;
20456;SDS011;10387;51.102;6.848;2023-03-12T02:46:47;7.33;;;6.00;;
20456;SDS011;10387;51.102;6.848;2023-03-12T02:49:15;6.07;;;5.47;;
20456;SDS011;10387;51.102;6.848;2023-03-12T02:51:44;6.47;;;5.43;;
20456;SDS011;10387;51.102;6.848;2023-03-12T02:54:11;7.43;;;5.73;;
20456;SDS011;10387;51.102;6.848;2023-03-12T02:56:38;10.07;;;6.27;;
20456;SDS011;10387;51.102;6.848;2023-03-12T02:59:04;5.60;;;4.80;;
20456;SDS011;10387;51.102;6.848;2023-03-12T03:01:34;6.87;;;5.30;;
20456;SDS011;10387;51.102;6.848;2023-03-12T03:04:00;6.90;;;5.27;;
20456;SDS011;10387;51.102;6.848;2023-03-12T03:06:27;7.13;;;5.40;;
20456;SDS011;10387;51.102;6.848;2023-03-12T03:08:53;5.83;;;5.00;;
20456;SDS011;10387;51.102;6.848;2023-03-12T03:11:19;6.20;;;5.60;;
20456;SDS011;10387;51.102;6.848;2023-03-12T03:13:50;7.53;;;5.10;;
20456;SDS011;10387;51.102;6.848;2023-03-12T03:16:17;6.27;;;5.43;;
20456;SDS011;10387;51.102;6.848;2023-03-12T03:18:43;5.23;;;4.70;;
20456;SDS011;10387;51.102;6.848;2023-03-12T03:21:09;8.63;;;4.93;;
20456;SDS011;10387;51.102;6.848;2023-03-12T03:23:40;5.47;;;4.97;;
20456;SDS011;10387;51.102;6.848;2023-03-12T03:26:10;6.23;;;5.13;;
20456;SDS011;10387;51.102;6.848;2023-03-12T03:28:36;8.20;;;5.10;;
20456;SDS011;10387;51.102;6.848;2023-03-12T03:31:01;5.20;;;4.70;;
20456;SDS011;10387;51.102;6.848;2023-03-12T03:33:33;6.00;;;4.50;;
20456;SDS011;10387;51.102;6.848;2023-03-12T03:36:01;6.30;;;4.80;;
20456;SDS011;10387;51.102;6.848;2023-03-12T03:38:30;7.10;;;4.27;;
20456;SDS011;10387;51.102;6.848;2023-03-12T03:40:56;6.37;;;4.73;;
20456;SDS011;10387;51.102;6.848;2023-03-12T03:43:23;5.53;;;4.53;;
20456;SDS011;10387;51.102;6.848;2023-03-12T03:45:56;5.97;;;5.00;;
20456;SDS011;10387;51.102;6.848;2023-03-12T03:48:23;6.43;;;4.70;;
20456;SDS011;10387;51.102;6.848;2023-03-12T03:50:49;6.03;;;4.80;;
20456;SDS011;10387;51.102;6.848;2023-03-12T03:53:15;6.33;;;4.53;;
20456;SDS011;10387;51.102;6.848;2023-03-12T03:55:43;6.77;;;5.13;;
20456;SDS011;10387;51.102;6.848;2023-03-12T03:58:10;6.87;;;4.87;;
20456;SDS011;10387;51.102;6.848;2023-03-12T04:00:37;5.47;;;4.10;;
20456;SDS011;10387;51.102;6.848;2023-03-12T04:03:03;6.27;;;4.67;;
20456;SDS011;10387;51.102;6.848;2023-03-12T04:05:29;7.17;;;4.67;;
20456;SDS011;10387;51.102;6.848;2023-03-12T04:07:55;6.93;;;4.70;;
20456;SDS011;10387;51.102;6.848;2023-03-12T04:10:24;5.20;;;4.70;;
20456;SDS011;10387;51.102;6.848;2023-03-12T04:12:50;5.47;;;4.83;;
20456;SDS011;10387;51.102;6.848;2023-03-12T04:15:17;6.97;;;4.93;;
20456;SDS011;10387;51.102;6.848;2023-03-12T04:17:44;6.30;;;4.30;;
20456;SDS011;10387;51.102;6.848;2023-03-12T04:20:10;6.03;;;4.10;;
20456;SDS011;10387;51.102;6.848;2023-03-12T04:22:37;5.40;;;4.00;;
20456;SDS011;10387;51.102;6.848;2023-03-12T04:25:04;5.60;;;4.47;;
20456;SDS011;10387;51.102;6.848;2023-03-12T04:27:32;5.80;;;4.47;;
20456;SDS011;10387;51.102;6.848;2023-03-12T04:29:58;5.73;;;4.80;;
20456;SDS011;10387;51.102;6.848;2023-03-12T04:32:23;4.70;;;4.17;;
20456;SDS011;10387;51.102;6.848;2023-03-12T04:34:50;6.20;;;4.30;;
20456;SDS011;10387;51.102;6.848;2023-03-12T04:37:16;5.60;;;4.07;;
20456;SDS011;10387;51.102;6.848;2023-03-12T04:39:43;4.40;;;4.10;;
20456;SDS011;10387;51.102;6.848;2023-03-12T04:42:10;4.73;;;3.90;;
20456;SDS011;10387;51.102;6.848;2023-03-12T04:44:39;5.70;;;4.33;;
20456;SDS011;10387;51.102;6.848;2023-03-12T04:47:07;4.40;;;4.00;;
20456;SDS011;10387;51.102;6.848;2023-03-12T04:49:33;7.53;;;4.30;;
20456;SDS011;10387;51.102;6.848;2023-03-12T04:52:00;6.03;;;4.17;;
20456;SDS011;10387;51.102;6.848;2023-03-12T04:54:27;4.60;;;4.10;;
20456;SDS011;10387;51.102;6.848;2023-03-12T04:56:57;5.03;;;4.10;;
20456;SDS011;10387;51.102;6.848;2023-03-12T04:59:26;6.33;;;4.20;;
20456;SDS011;10387;51.102;6.848;2023-03-12T05:01:54;6.97;;;3.80;;
20456;SDS011;10387;51.102;6.848;2023-03-12T05:04:25;4.83;;;3.97;;
20456;SDS011;10387;51.102;6.848;2023-03-12T05:06:52;4.93;;;3.80;;
20456;SDS011;10387;51.102;6.848;2023-03-12T05:09:19;4.10;;;3.40;;
20456;SDS011;10387;51.102;6.848;2023-03-12T05:11:46;5.20;;;4.20;;
20456;SDS011;10387;51.102;6.848;2023-03-12T05:14:15;4.53;;;3.80;;
20456;SDS011;10387;51.102;6.848;2023-03-12T05:16:44;8.77;;;4.97;;
20456;SDS011;10387;51.102;6.848;2023-03-12T05:19:10;4.63;;;3.87;;
20456;SDS011;10387;51.102;6.848;2023-03-12T05:21:38;6.63;;;3.90;;
20456;SDS011;10387;51.102;6.848;2023-03-12T05:24:07;4.67;;;4.17;;
20456;SDS011;10387;51.102;6.848;2023-03-12T05:26:35;6.20;;;4.00;;
20456;SDS011;10387;51.102;6.848;2023-03-12T05:29:09;4.20;;;3.80;;
20456;SDS011;10387;51.102;6.848;2023-03-12T05:31:36;5.63;;;3.90;;
20456;SDS011;10387;51.102;6.848;2023-03-12T05:34:27;7.00;;;4.67;;
20456;SDS011;10387;51.102;6.848;2023-03-12T05:36:56;5.33;;;3.93;;
20456;SDS011;10387;51.102;6.848;2023-03-12T05:39:25;7.87;;;4.77;;
20456;SDS011;10387;51.102;6.848;2023-03-12T05:42:00;4.70;;;4.20;;
20456;SDS011;10387;51.102;6.848;2023-03-12T05:44:30;4.57;;;4.00;;
20456;SDS011;10387;51.102;6.848;2023-03-12T05:47:25;4.90;;;4.00;;
20456;SDS011;10387;51.102;6.848;2023-03-12T05:49:51;8.10;;;4.37;;
20456;SDS011;10387;51.102;6.848;2023-03-12T05:52:18;5.43;;;4.23;;
20456;SDS011;10387;51.102;6.848;2023-03-12T05:54:44;5.47;;;4.50;;
20456;SDS011;10387;51.102;6.848;2023-03-12T05:57:13;6.50;;;5.10;;
20456;SDS011;10387;51.102;6.848;2023-03-12T05:59:40;6.33;;;4.67;;
20456;SDS011;10387;51.102;6.848;2023-03-12T06:02:07;10.33;;;4.77;;
20456;SDS011;10387;51.102;6.848;2023-03-12T06:04:34;6.43;;;5.20;;
20456;SDS011;10387;51.102;6.848;2023-03-12T06:07:01;6.83;;;5.40;;
20456;SDS011;10387;51.102;6.848;2023-03-12T06:09:36;9.20;;;5.07;;
20456;SDS011;10387;51.102;6.848;2023-03-12T06:12:02;7.63;;;5.60;;
20456;SDS011;10387;51.102;6.848;2023-03-12T06:14:29;5.77;;;4.97;;
20456;SDS011;10387;51.102;6.848;2023-03-12T06:16:59;8.83;;;5.50;;
20456;SDS011;10387;51.102;6.848;2023-03-12T06:19:27;7.10;;;6.20;;
20456;SDS011;10387;51.102;6.848;2023-03-12T06:21:54;7.73;;;6.13;;
20456;SDS011;10387;51.102;6.848;2023-03-12T06:24:20;7.23;;;5.50;;
20456;SDS011;10387;51.102;6.848;2023-03-12T06:26:52;7.80;;;5.80;;
20456;SDS011;10387;51.102;6.848;2023-03-12T06:29:21;7.10;;;6.00;;
20456;SDS011;10387;51.102;6.848;2023-03-12T06:31:47;8.13;;;6.53;;
20456;SDS011;10387;51.102;6.848;2023-03-12T06:34:16;8.13;;;5.90;;
20456;SDS011;10387;51.102;6.848;2023-03-12T06:36:43;6.77;;;5.67;;
20456;SDS011;10387;51.102;6.848;2023-03-12T06:39:09;7.17;;;5.40;;
20456;SDS011;10387;51.102;6.848;2023-03-12T06:41:38;7.67;;;4.90;;
20456;SDS011;10387;51.102;6.848;2023-03-12T06:44:06;8.17;;;5.03;;
20456;SDS011;10387;51.102;6.848;2023-03-12T06:46:33;9.00;;;4.80;;
20456;SDS011;10387;51.102;6.848;2023-03-12T06:48:59;7.50;;;4.70;;
20456;SDS011;10387;51.102;6.848;2023-03-12T06:51:25;5.20;;;4.70;;
20456;SDS011;10387;51.102;6.848;2023-03-12T06:53:51;6.50;;;4.53;;
20456;SDS011;10387;51.102;6.848;2023-03-12T06:56:17;6.03;;;4.40;;
20456;SDS011;10387;51.102;6.848;2023-03-12T06:58:43;6.23;;;4.87;;
20456;SDS011;10387;51.102;6.848;2023-03-12T07:01:09;6.43;;;4.90;;
20456;SDS011;10387;51.102;6.848;2023-03-12T07:03:35;7.73;;;4.83;;
20456;SDS011;10387;51.102;6.848;2023-03-12T07:06:01;4.77;;;4.27;;
20456;SDS011;10387;51.102;6.848;2023-03-12T07:08:27;6.53;;;4.63;;
20456;SDS011;10387;51.102;6.848;2023-03-12T07:10:57;4.87;;;4.07;;
20456;SDS011;10387;51.102;6.848;2023-03-12T07:13:24;6.27;;;4.27;;
20456;SDS011;10387;51.102;6.848;2023-03-12T07:15:50;6.43;;;5.00;;
20456;SDS011;10387;51.102;6.848;2023-03-12T07:18:15;5.27;;;3.93;;
20456;SDS011;10387;51.102;6.848;2023-03-12T07:20:42;8.33;;;4.50;;
20456;SDS011;10387;51.102;6.848;2023-03-12T07:23:08;6.50;;;4.47;;
20456;SDS011;10387;51.102;6.848;2023-03-12T07:25:35;7.17;;;4.93;;
20456;SDS011;10387;51.102;6.848;2023-03-12T07:28:01;10.10;;;4.70;;
20456;SDS011;10387;51.102;6.848;2023-03-12T07:30:27;5.43;;;4.90;;
20456;SDS011;10387;51.102;6.848;2023-03-12T07:33:04;7.17;;;4.63;;
20456;SDS011;10387;51.102;6.848;2023-03-12T07:35:31;8.10;;;5.17;;
20456;SDS011;10387;51.102;6.848;2023-03-12T07:37:57;5.37;;;4.87;;
20456;SDS011;10387;51.102;6.848;2023-03-12T07:40:23;6.47;;;4.30;;
20456;SDS011;10387;51.102;6.848;2023-03-12T07:42:50;6.17;;;4.70;;
20456;SDS011;10387;51.102;6.848;2023-03-12T07:45:16;5.10;;;4.60;;
20456;SDS011;10387;51.102;6.848;2023-03-12T07:47:42;7.90;;;4.77;;
20456;SDS011;10387;51.102;6.848;2023-03-12T07:50:08;7.27;;;5.00;;
20456;SDS011;10387;51.102;6.848;2023-03-12T07:52:34;5.00;;;4.50;;
20456;SDS011;10387;51.102;6.848;2023-03-12T07:55:00;5.93;;;5.03;;
20456;SDS011;10387;51.102;6.848;2023-03-12T07:57:26;6.40;;;5.40;;
20456;SDS011;10387;51.102;6.848;2023-03-12T07:59:51;6.57;;;4.90;;
20456;SDS011;10387;51.102;6.848;2023-03-12T08:02:17;7.73;;;5.30;;
20456;SDS011;10387;51.102;6.848;2023-03-12T08:04:44;5.37;;;4.87;;
20456;SDS011;10387;51.102;6.848;2023-03-12T08:07:10;8.47;;;5.10;;
20456;SDS011;10387;51.102;6.848;2023-03-12T08:09:36;5.73;;;5.07;;
20456;SDS011;10387;51.102;6.848;2023-03-12T08:12:03;5.67;;;4.50;;
20456;SDS011;10387;51.102;6.848;2023-03-12T08:14:32;6.17;;;4.53;;
20456;SDS011;10387;51.102;6.848;2023-03-12T08:16:59;5.47;;;4.43;;
20456;SDS011;10387;51.102;6.848;2023-03-12T08:19:25;5.63;;;4.90;;
20456;SDS011;10387;51.102;6.848;2023-03-12T08:21:52;7.43;;;5.90;;
20456;SDS011;10387;51.102;6.848;2023-03-12T08:24:19;6.97;;;5.10;;
20456;SDS011;10387;51.102;6.848;2023-03-12T08:26:45;7.17;;;5.07;;
20456;SDS011;10387;51.102;6.848;2023-03-12T08:29:11;7.53;;;4.90;;
20456;SDS011;10387;51.102;6.848;2023-03-12T08:31:37;7.80;;;5.53;;
20456;SDS011;10387;51.102;6.848;2023-03-12T08:34:03;7.10;;;4.97;;
20456;SDS011;10387;51.102;6.848;2023-03-12T08:36:29;9.37;;;5.13;;
20456;SDS011;10387;51.102;6.848;2023-03-12T08:38:55;9.07;;;5.90;;
20456;SDS011;10387;51.102;6.848;2023-03-12T08:41:21;9.53;;;5.83;;
20456;SDS011;10387;51.102;6.848;2023-03-12T08:43:46;7.63;;;6.03;;
20456;SDS011;10387;51.102;6.848;2023-03-12T08:46:12;6.57;;;5.43;;
20456;SDS011;10387;51.102;6.848;2023-03-12T08:48:38;9.83;;;6.50;;
20456;SDS011;10387;51.102;6.848;2023-03-12T08:51:05;8.80;;;6.87;;
20456;SDS011;10387;51.102;6.848;2023-03-12T08:53:32;8.90;;;6.13;;
20456;SDS011;10387;51.102;6.848;2023-03-12T08:56:00;9.10;;;6.93;;
20456;SDS011;10387;51.102;6.848;2023-03-12T08:58:26;10.37;;;7.57;;
20456;SDS011;10387;51.102;6.848;2023-03-12T09:00:53;7.83;;;6.83;;
20456;SDS011;10387;51.102;6.848;2023-03-12T09:03:20;10.47;;;7.23;;
20456;SDS011;10387;51.102;6.848;2023-03-12T09:05:46;8.20;;;7.33;;
20456;SDS011;10387;51.102;6.848;2023-03-12T09:08:12;10.10;;;7.70;;
20456;SDS011;10387;51.102;6.848;2023-03-12T09:10:39;8.73;;;7.90;;
20456;SDS011;10387;51.102;6.848;2023-03-12T09:13:11;9.20;;;7.20;;
20456;SDS011;10387;51.102;6.848;2023-03-12T09:15:36;10.07;;;7.17;;
20456;SDS011;10387;51.102;6.848;2023-03-12T09:18:02;7.70;;;7.00;;
20456;SDS011;10387;51.102;6.848;2023-03-12T09:20:28;8.20;;;7.30;;
20456;SDS011;10387;51.102;6.848;2023-03-12T09:22:54;8.40;;;7.37;;
20456;SDS011;10387;51.102;6.848;2023-03-12T09:25:19;8.00;;;7.20;;
20456;SDS011;10387;51.102;6.848;2023-03-12T09:27:47;8.33;;;7.47;;
20456;SDS011;10387;51.102;6.848;2023-03-12T09:30:17;12.33;;;8.83;;
20456;SDS011;10387;51.102;6.848;2023-03-12T09:32:44;10.97;;;9.00;;
20456;SDS011;10387;51.102;6.848;2023-03-12T09:35:10;9.67;;;8.67;;
20456;SDS011;10387;51.102;6.848;2023-03-12T09:37:37;9.77;;;8.37;;
20456;SDS011;10387;51.102;6.848;2023-03-12T09:40:03;10.80;;;8.57;;
20456;SDS011;10387;51.102;6.848;2023-03-12T09:45:18;11.20;;;9.27;;
20456;SDS011;10387;51.102;6.848;2023-03-12T09:47:50;12.30;;;9.33;;
20456;SDS011;10387;51.102;6.848;2023-03-12T09:50:20;11.40;;;9.33;;
20456;SDS011;10387;51.102;6.848;2023-03-12T09:52:58;14.40;;;9.57;;
20456;SDS011;10387;51.102;6.848;2023-03-12T09:55:27;12.53;;;9.67;;
20456;SDS011;10387;51.102;6.848;2023-03-12T09:57:59;11.70;;;10.50;;
20456;SDS011;10387;51.102;6.848;2023-03-12T10:00:29;12.20;;;10.60;;
20456;SDS011;10387;51.102;6.848;2023-03-12T10:10:58;13.23;;;11.07;;
20456;SDS011;10387;51.102;6.848;2023-03-12T10:13:39;13.77;;;11.23;;
20456;SDS011;10387;51.102;6.848;2023-03-12T10:27:09;11.77;;;10.53;;
20456;SDS011;10387;51.102;6.848;2023-03-12T10:29:38;12.33;;;10.73;;
20456;SDS011;10387;51.102;6.848;2023-03-12T10:37:27;13.80;;;12.37;;
20456;SDS011;10387;51.102;6.848;2023-03-12T10:39:53;14.07;;;12.57;;
20456;SDS011;10387;51.102;6.848;2023-03-12T10:42:21;15.03;;;12.83;;
20456;SDS011;10387;51.102;6.848;2023-03-12T10:45:00;14.47;;;12.97;;
20456;SDS011;10387;51.102;6.848;2023-03-12T10:47:37;14.27;;;12.67;;
20456;SDS011;10387;51.102;6.848;2023-03-12T10:50:18;14.13;;;12.63;;
20456;SDS011;10387;51.102;6.848;2023-03-12T10:52:52;14.37;;;12.87;;
20456;SDS011;10387;51.102;6.848;2023-03-12T10:55:40;14.87;;;13.30;;
20456;SDS011;10387;51.102;6.848;2023-03-12T10:58:18;14.70;;;13.20;;
20456;SDS011;10387;51.102;6.848;2023-03-12T11:00:53;14.23;;;12.73;;
20456;SDS011;10387;51.102;6.848;2023-03-12T11:03:21;14.77;;;13.27;;
20456;SDS011;10387;51.102;6.848;2023-03-12T11:11:53;16.57;;;13.80;;
20456;SDS011;10387;51.102;6.848;2023-03-12T11:14:26;17.53;;;14.37;;
20456;SDS011;10387;51.102;6.848;2023-03-12T11:16:55;16.47;;;13.63;;
20456;SDS011;10387;51.102;6.848;2023-03-12T11:19:45;18.20;;;14.43;;
20456;SDS011;10387;51.102;6.848;2023-03-12T11:22:14;15.63;;;13.30;;
20456;SDS011;10387;51.102;6.848;2023-03-12T11:25:18;15.77;;;14.10;;
20456;SDS011;10387;51.102;6.848;2023-03-12T11:27:52;15.57;;;13.83;;
20456;SDS011;10387;51.102;6.848;2023-03-12T11:30:35;14.87;;;13.27;;
20456;SDS011;10387;51.102;6.848;2023-03-12T11:33:04;16.77;;;14.77;;
20456;SDS011;10387;51.102;6.848;2023-03-12T11:38:22;15.17;;;13.47;;
20456;SDS011;10387;51.102;6.848;2023-03-12T11:41:40;17.07;;;14.40;;
20456;SDS011;10387;51.102;6.848;2023-03-12T11:50:33;17.87;;;14.67;;
20456;SDS011;10387;51.102;6.848;2023-03-12T12:11:48;27.30;;;12.67;;
20456;SDS011;10387;51.102;6.848;2023-03-12T12:20:28;27.30;;;12.47;;
20456;SDS011;10387;51.102;6.848;2023-03-12T12:25:48;28.23;;;12.83;;
20456;SDS011;10387;51.102;6.848;2023-03-12T12:32:02;21.47;;;11.23;;
20456;SDS011;10387;51.102;6.848;2023-03-12T12:37:49;25.10;;;10.00;;
20456;SDS011;10387;51.102;6.848;2023-03-12T12:43:34;22.13;;;9.63;;
20456;SDS011;10387;51.102;6.848;2023-03-12T12:45:53;22.27;;;9.83;;
20456;SDS011;10387;51.102;6.848;2023-03-12T12:52:25;21.40;;;9.53;;
20456;SDS011;10387;51.102;6.848;2023-03-12T12:57:56;23.47;;;8.53;;
20456;SDS011;10387;51.102;6.848;2023-03-12T13:03:43;16.57;;;7.77;;
20456;SDS011;10387;51.102;6.848;2023-03-12T13:07:00;17.60;;;8.47;;
20456;SDS011;10387;51.102;6.848;2023-03-12T13:09:57;17.77;;;7.93;;
20456;SDS011;10387;51.102;6.848;2023-03-12T13:13:22;16.13;;;6.93;;
20456;SDS011;10387;51.102;6.848;2023-03-12T13:34:30;14.07;;;7.23;;
20456;SDS011;10387;51.102;6.848;2023-03-12T13:40:35;17.23;;;6.93;;
20456;SDS011;10387;51.102;6.848;2023-03-12T13:54:24;16.90;;;5.50;;
20456;SDS011;10387;51.102;6.848;2023-03-12T13:57:01;15.53;;;5.87;;
20456;SDS011;10387;51.102;6.848;2023-03-12T13:59:42;14.07;;;5.50;;
20456;SDS011;10387;51.102;6.848;2023-03-12T14:02:30;14.03;;;5.73;;
20456;SDS011;10387;51.102;6.848;2023-03-12T14:05:07;14.23;;;5.63;;
20456;SDS011;10387;51.102;6.848;2023-03-12T14:16:01;16.83;;;6.33;;
20456;SDS011;10387;51.102;6.848;2023-03-12T14:18:44;15.87;;;5.80;;
20456;SDS011;10387;51.102;6.848;2023-03-12T14:21:13;16.70;;;5.20;;
20456;SDS011;10387;51.102;6.848;2023-03-12T14:23:48;13.37;;;5.77;;
20456;SDS011;10387;51.102;6.848;2023-03-12T14:26:39;17.30;;;5.97;;
20456;SDS011;10387;51.102;6.848;2023-03-12T14:29:19;14.50;;;5.83;;
20456;SDS011;10387;51.102;6.848;2023-03-12T14:32:01;17.20;;;6.03;;
20456;SDS011;10387;51.102;6.848;2023-03-12T14:38:33;12.30;;;5.07;;
20456;SDS011;10387;51.102;6.848;2023-03-12T14:41:13;16.47;;;5.60;;
20456;SDS011;10387;51.102;6.848;2023-03-12T14:43:49;14.27;;;6.07;;
20456;SDS011;10387;51.102;6.848;2023-03-12T15:01:20;16.73;;;5.90;;
20456;SDS011;10387;51.102;6.848;2023-03-12T15:04:11;18.97;;;5.90;;
20456;SDS011;10387;51.102;6.848;2023-03-12T15:11:03;16.37;;;5.60;;
20456;SDS011;10387;51.102;6.848;2023-03-12T15:14:15;18.63;;;6.33;;
20456;SDS011;10387;51.102;6.848;2023-03-12T15:20:07;20.60;;;6.50;;
20456;SDS011;10387;51.102;6.848;2023-03-12T15:22:40;17.70;;;5.67;;
20456;SDS011;10387;51.102;6.848;2023-03-12T15:25:19;22.73;;;7.03;;
20456;SDS011;10387;51.102;6.848;2023-03-12T15:28:52;19.03;;;6.07;;
20456;SDS011;10387;51.102;6.848;2023-03-12T15:31:02;21.83;;;6.07;;
20456;SDS011;10387;51.102;6.848;2023-03-12T15:33:35;19.17;;;6.13;;
20456;SDS011;10387;51.102;6.848;2023-03-12T15:36:04;17.07;;;5.77;;
20456;SDS011;10387;51.102;6.848;2023-03-12T15:38:43;19.10;;;6.13;;
20456;SDS011;10387;51.102;6.848;2023-03-12T15:41:17;16.90;;;5.73;;
20456;SDS011;10387;51.102;6.848;2023-03-12T15:43:58;15.33;;;5.63;;
20456;SDS011;10387;51.102;6.848;2023-03-12T15:46:24;19.57;;;6.20;;
20456;SDS011;10387;51.102;6.848;2023-03-12T15:48:55;17.37;;;5.97;;
20456;SDS011;10387;51.102;6.848;2023-03-12T15:51:28;17.87;;;6.10;;
20456;SDS011;10387;51.102;6.848;2023-03-12T15:54:44;22.33;;;7.23;;
20456;SDS011;10387;51.102;6.848;2023-03-12T15:56:51;16.30;;;5.70;;
20456;SDS011;10387;51.102;6.848;2023-03-12T15:59:24;16.33;;;5.83;;
20456;SDS011;10387;51.102;6.848;2023-03-12T16:01:52;16.20;;;5.90;;
20456;SDS011;10387;51.102;6.848;2023-03-12T16:04:20;18.27;;;6.37;;
20456;SDS011;10387;51.102;6.848;2023-03-12T16:06:47;16.80;;;6.20;;
20456;SDS011;10387;51.102;6.848;2023-03-12T16:09:17;20.17;;;6.60;;
20456;SDS011;10387;51.102;6.848;2023-03-12T16:11:45;17.37;;;5.70;;
20456;SDS011;10387;51.102;6.848;2023-03-12T16:14:16;21.37;;;5.60;;
20456;SDS011;10387;51.102;6.848;2023-03-12T16:16:46;18.33;;;5.90;;
20456;SDS011;10387;51.102;6.848;2023-03-12T16:19:12;17.33;;;5.93;;
20456;SDS011;10387;51.102;6.848;2023-03-12T16:21:40;18.80;;;5.47;;
20456;SDS011;10387;51.102;6.848;2023-03-12T16:24:08;13.17;;;6.20;;
20456;SDS011;10387;51.102;6.848;2023-03-12T16:26:34;18.13;;;5.47;;
20456;SDS011;10387;51.102;6.848;2023-03-12T16:29:05;17.83;;;7.00;;
20456;SDS011;10387;51.102;6.848;2023-03-12T16:31:31;18.67;;;7.63;;
20456;SDS011;10387;51.102;6.848;2023-03-12T16:33:56;20.37;;;7.37;;
20456;SDS011;10387;51.102;6.848;2023-03-12T16:36:22;17.03;;;7.33;;
20456;SDS011;10387;51.102;6.848;2023-03-12T16:38:48;20.67;;;8.37;;
20456;SDS011;10387;51.102;6.848;2023-03-12T16:41:17;19.53;;;5.60;;
20456;SDS011;10387;51.102;6.848;2023-03-12T16:43:44;22.70;;;5.93;;
20456;SDS011;10387;51.102;6.848;2023-03-12T16:46:14;19.70;;;6.67;;
20456;SDS011;10387;51.102;6.848;2023-03-12T16:48:42;20.70;;;6.37;;
20456;SDS011;10387;51.102;6.848;2023-03-12T16:51:12;17.77;;;6.13;;
20456;SDS011;10387;51.102;6.848;2023-03-12T16:53:39;18.93;;;6.60;;
20456;SDS011;10387;51.102;6.848;2023-03-12T16:56:05;13.70;;;5.67;;
20456;SDS011;10387;51.102;6.848;2023-03-12T16:58:31;19.40;;;5.67;;
20456;SDS011;10387;51.102;6.848;2023-03-12T17:00:57;17.13;;;7.10;;
20456;SDS011;10387;51.102;6.848;2023-03-12T17:03:34;21.30;;;10.17;;
20456;SDS011;10387;51.102;6.848;2023-03-12T17:06:03;18.03;;;6.97;;
20456;SDS011;10387;51.102;6.848;2023-03-12T17:08:30;20.53;;;8.60;;
20456;SDS011;10387;51.102;6.848;2023-03-12T17:10:56;17.90;;;7.40;;
20456;SDS011;10387;51.102;6.848;2023-03-12T17:13:24;22.43;;;7.00;;
20456;SDS011;10387;51.102;6.848;2023-03-12T17:15:52;16.07;;;6.57;;
20456;SDS011;10387;51.102;6.848;2023-03-12T17:18:19;21.50;;;6.63;;
20456;SDS011;10387;51.102;6.848;2023-03-12T17:20:48;26.97;;;13.23;;
20456;SDS011;10387;51.102;6.848;2023-03-12T17:23:16;27.33;;;13.93;;
20456;SDS011;10387;51.102;6.848;2023-03-12T17:25:42;19.70;;;7.17;;
20456;SDS011;10387;51.102;6.848;2023-03-12T17:28:10;13.73;;;5.77;;
20456;SDS011;10387;51.102;6.848;2023-03-12T17:30:39;17.80;;;5.80;;
20456;SDS011;10387;51.102;6.848;2023-03-12T17:33:12;16.03;;;6.80;;
20456;SDS011;10387;51.102;6.848;2023-03-12T17:35:39;17.17;;;5.87;;
20456;SDS011;10387;51.102;6.848;2023-03-12T17:38:06;18.13;;;6.90;;
20456;SDS011;10387;51.102;6.848;2023-03-12T17:40:32;14.90;;;4.80;;
20456;SDS011;10387;51.102;6.848;2023-03-12T17:43:01;19.07;;;5.20;;
20456;SDS011;10387;51.102;6.848;2023-03-12T17:45:26;18.47;;;5.30;;
20456;SDS011;10387;51.102;6.848;2023-03-12T17:47:52;20.83;;;5.47;;